Share

Altamont, SD

7:02 PM CDT on April 24, 2014 (GMT -0500)
Canby (KCNB) Elev 1194 ft | 44.73 °N, 96.26 °W | Change Station

Current weather conditions updated 8 minutes ago

Mostly Cloudy
Mostly Cloudy
54 °F
Feels Like 54 °F
N
15
Wind Variable Wind from North
Gusts 20 mph
Sunrise 6:27 AM
Sunset 8:23 PM
Moon Waning Crescent

Tomorrow is forecast to be Much Warmer than today.

Pressure 29.71 in
Visibility 10.0 miles
Clouds Scattered Clouds 3800 ft
Mostly Cloudy 6000 ft
Mostly Cloudy 7500 ft
Dew Point 43 °F
Humidity 66%
Rainfall 0.35 in
Snow Depth Not available.
UV 0 out of 16
Pollen 10.70 out of 12
Air Quality Not available.
Flu Activity Sporadic
METAR KCNB 242354Z AUTO 01013G17KT 10SM SCT038 BKN060 BKN075 12/06 A2971 RMK AO2 T01240063 10135 20072

More Conditions Fewer Conditions

Pressure 29.71 in
Visibility 10.0 miles
Clouds Scattered Clouds 3800 ft
Mostly Cloudy 6000 ft
Mostly Cloudy 7500 ft
Dew Point 43 °F
Humidity 66%
Rainfall 0.35 in
Snow Depth Not available.
UV 0 out of 16
Pollen 10.70 out of 12
Air Quality Not available.
Flu Activity Sporadic
METAR KCNB 242354Z AUTO 01013G17KT 10SM SCT038 BKN060 BKN075 12/06 A2971 RMK AO2 T01240063 10135 20072

More Conditions Fewer Conditions

10-Day Weather Forecast

Almanac

Astronomy

Apr. 24, 2014 Rise Set
Actual Time 6:27 AM CDT 8:23 PM CDT
Civil Twilight 5:55 AM CDT 8:54 PM CDT
Nautical Twilight 5:17 AM CDT 9:33 PM CDT
Astronomical Twilight 4:35 AM CDT 10:15 PM CDT
Moon 3:52 AM CDT (4/24) 3:28 PM CDT (4/24)
Length of Visible Light 14h 58m
Length of Day
13h 55m
Tomorrow will be 2m 50s longer.
Waning Crescent, 21% of the Moon is Illuminated
Today
Waning Crescent
Apr 29
New
May 6
First Quarter
May 14
Full
May 21
Last Quarter

Today's Extremes

State Highs State Lows

Community

  • Jone Runs Falls
    Jone Runs Falls
  • Easter in Shenandoah National Park
    Easter in Shenandoah National Park
  • Sunset at Apalachicola Bay, Florida
    Sunset at Apalachicola Bay, Florida
  • Clouds mov'n in
    Clouds mov'n in
  • Stacked
    Stacked

WunderPhotos

Upload Photos

1,704,752 photos uploaded!

Nearby

Snow Depth

Station Depth Elevation
North Rapid Creek 10 in 6130 ft
Blind Park 9 in 6890 ft

Coastal Water Temperatures

Place Temperature
No Stations Reporting

Earthquake Activity

City Distance Mag. Time & Date
No recent earthquake activity has been reported nearby.
Minimum magnitude displayed is 2.5.

Nearby Weather Stations

Station Location Temp. Dew Point Humidity Wind Precip. Elev Updated Type
East side of Watertown, SD, Watertown, SD 55.0 °F 45 °F 69% East  at  7.3 mph - / hr 1732 ft 6:53 PM CDT Normal
Turkey Ridge, Watertown, SD 53.5 °F 43 °F 67% ENE  at  5.0 mph 0.00 in / hr 1795 ft 6:59 PM CDT Normal
South Lake Pelican, Watertown, SD 55.4 °F 42 °F 60% ENE  at  2.0 mph 0.00 in / hr 1726 ft 7:02 PM CDT Rapid Fire

Show More Stations Show Fewer Stations

What do you think?

We're not finished. Please let us know what you like, what you don't like, and what you are still missing.